sensor_id;sensor_type;location;lat;lon;timestamp;temperature;humidity
3069;DHT22;1545;51.728;8.796;2023-11-19T00:00:30;9.70;98.80
3069;DHT22;1545;51.728;8.796;2023-11-19T00:02:55;9.80;98.80
3069;DHT22;1545;51.728;8.796;2023-11-19T00:05:21;9.80;98.80
3069;DHT22;1545;51.728;8.796;2023-11-19T00:07:46;9.80;98.80
3069;DHT22;1545;51.728;8.796;2023-11-19T00:10:13;9.90;98.80
3069;DHT22;1545;51.728;8.796;2023-11-19T00:12:43;10.00;98.80
3069;DHT22;1545;51.728;8.796;2023-11-19T00:15:10;10.10;98.80
3069;DHT22;1545;51.728;8.796;2023-11-19T00:17:37;10.20;98.80
3069;DHT22;1545;51.728;8.796;2023-11-19T00:20:06;10.20;98.80
3069;DHT22;1545;51.728;8.796;2023-11-19T00:22:32;10.20;98.80
3069;DHT22;1545;51.728;8.796;2023-11-19T00:24:58;10.30;98.80
3069;DHT22;1545;51.728;8.796;2023-11-19T00:27:23;10.30;98.80
3069;DHT22;1545;51.728;8.796;2023-11-19T00:29:49;10.40;98.80
3069;DHT22;1545;51.728;8.796;2023-11-19T00:32:14;10.40;98.80
3069;DHT22;1545;51.728;8.796;2023-11-19T00:34:40;10.40;98.80
3069;DHT22;1545;51.728;8.796;2023-11-19T00:37:06;10.40;98.80
3069;DHT22;1545;51.728;8.796;2023-11-19T00:39:32;10.40;98.80
3069;DHT22;1545;51.728;8.796;2023-11-19T00:41:58;10.40;98.80
3069;DHT22;1545;51.728;8.796;2023-11-19T00:44:23;10.50;98.80
3069;DHT22;1545;51.728;8.796;2023-11-19T00:46:49;10.40;98.80
3069;DHT22;1545;51.728;8.796;2023-11-19T00:49:14;10.50;98.80
3069;DHT22;1545;51.728;8.796;2023-11-19T00:51:40;10.60;98.80
3069;DHT22;1545;51.728;8.796;2023-11-19T00:54:06;10.60;98.80
3069;DHT22;1545;51.728;8.796;2023-11-19T00:56:31;10.60;98.80
3069;DHT22;1545;51.728;8.796;2023-11-19T00:58:57;10.60;98.80
3069;DHT22;1545;51.728;8.796;2023-11-19T01:01:22;10.60;98.80
3069;DHT22;1545;51.728;8.796;2023-11-19T01:03:48;10.70;98.80
3069;DHT22;1545;51.728;8.796;2023-11-19T01:06:13;10.70;98.80
3069;DHT22;1545;51.728;8.796;2023-11-19T01:08:42;10.70;98.80
3069;DHT22;1545;51.728;8.796;2023-11-19T01:11:09;10.70;98.80
3069;DHT22;1545;51.728;8.796;2023-11-19T01:13:34;10.70;98.80
3069;DHT22;1545;51.728;8.796;2023-11-19T01:15:59;10.70;98.80
3069;DHT22;1545;51.728;8.796;2023-11-19T01:18:27;10.70;98.80
3069;DHT22;1545;51.728;8.796;2023-11-19T01:20:53;10.70;98.80
3069;DHT22;1545;51.728;8.796;2023-11-19T01:23:18;10.80;98.80
3069;DHT22;1545;51.728;8.796;2023-11-19T01:25:43;10.80;98.80
3069;DHT22;1545;51.728;8.796;2023-11-19T01:28:09;10.90;98.80
3069;DHT22;1545;51.728;8.796;2023-11-19T01:30:34;10.90;98.80
3069;DHT22;1545;51.728;8.796;2023-11-19T01:33:00;10.90;98.80
3069;DHT22;1545;51.728;8.796;2023-11-19T01:35:25;10.90;98.80
3069;DHT22;1545;51.728;8.796;2023-11-19T01:37:51;11.00;98.80
3069;DHT22;1545;51.728;8.796;2023-11-19T01:40:20;11.00;98.80
3069;DHT22;1545;51.728;8.796;2023-11-19T01:42:46;11.00;98.80
3069;DHT22;1545;51.728;8.796;2023-11-19T01:45:26;11.00;98.80
3069;DHT22;1545;51.728;8.796;2023-11-19T01:47:53;11.00;98.80
3069;DHT22;1545;51.728;8.796;2023-11-19T01:50:19;11.10;98.80
3069;DHT22;1545;51.728;8.796;2023-11-19T01:52:45;11.10;98.80
3069;DHT22;1545;51.728;8.796;2023-11-19T01:55:11;11.10;98.80
3069;DHT22;1545;51.728;8.796;2023-11-19T01:57:37;11.10;98.80
3069;DHT22;1545;51.728;8.796;2023-11-19T02:00:04;11.10;98.80
3069;DHT22;1545;51.728;8.796;2023-11-19T02:02:30;11.20;98.80
3069;DHT22;1545;51.728;8.796;2023-11-19T02:04:56;11.20;98.80
3069;DHT22;1545;51.728;8.796;2023-11-19T02:07:24;11.20;98.80
3069;DHT22;1545;51.728;8.796;2023-11-19T02:09:49;11.20;98.80
3069;DHT22;1545;51.728;8.796;2023-11-19T02:12:15;11.20;98.80
3069;DHT22;1545;51.728;8.796;2023-11-19T02:14:40;11.10;98.80
3069;DHT22;1545;51.728;8.796;2023-11-19T02:17:06;11.10;98.80
3069;DHT22;1545;51.728;8.796;2023-11-19T02:19:31;11.00;98.80
3069;DHT22;1545;51.728;8.796;2023-11-19T02:21:57;11.00;98.80
3069;DHT22;1545;51.728;8.796;2023-11-19T02:24:26;11.10;98.80
3069;DHT22;1545;51.728;8.796;2023-11-19T02:27:08;11.20;98.80
3069;DHT22;1545;51.728;8.796;2023-11-19T02:29:35;11.10;98.80
3069;DHT22;1545;51.728;8.796;2023-11-19T02:32:04;11.10;98.80
3069;DHT22;1545;51.728;8.796;2023-11-19T02:34:29;11.10;98.80
3069;DHT22;1545;51.728;8.796;2023-11-19T02:36:55;11.10;98.80
3069;DHT22;1545;51.728;8.796;2023-11-19T02:39:20;11.20;98.80
3069;DHT22;1545;51.728;8.796;2023-11-19T02:41:47;11.20;98.80
3069;DHT22;1545;51.728;8.796;2023-11-19T02:44:16;11.20;98.80
3069;DHT22;1545;51.728;8.796;2023-11-19T02:46:42;11.20;98.80
3069;DHT22;1545;51.728;8.796;2023-11-19T02:49:07;11.20;98.80
3069;DHT22;1545;51.728;8.796;2023-11-19T02:51:33;11.20;98.80
3069;DHT22;1545;51.728;8.796;2023-11-19T02:54:00;11.40;98.80
3069;DHT22;1545;51.728;8.796;2023-11-19T02:56:25;11.40;98.80
3069;DHT22;1545;51.728;8.796;2023-11-19T02:58:52;11.40;98.80
3069;DHT22;1545;51.728;8.796;2023-11-19T03:01:26;11.40;98.80
3069;DHT22;1545;51.728;8.796;2023-11-19T03:03:56;11.50;98.80
3069;DHT22;1545;51.728;8.796;2023-11-19T03:06:22;11.50;98.80
3069;DHT22;1545;51.728;8.796;2023-11-19T03:08:48;11.60;98.80
3069;DHT22;1545;51.728;8.796;2023-11-19T03:11:14;11.50;98.80
3069;DHT22;1545;51.728;8.796;2023-11-19T03:13:40;11.60;98.80
3069;DHT22;1545;51.728;8.796;2023-11-19T03:16:06;11.70;98.80
3069;DHT22;1545;51.728;8.796;2023-11-19T03:18:32;11.80;98.80
3069;DHT22;1545;51.728;8.796;2023-11-19T03:20:58;11.80;98.80
3069;DHT22;1545;51.728;8.796;2023-11-19T03:23:24;11.80;98.80
3069;DHT22;1545;51.728;8.796;2023-11-19T03:25:50;11.70;98.80
3069;DHT22;1545;51.728;8.796;2023-11-19T03:28:16;11.70;98.80
3069;DHT22;1545;51.728;8.796;2023-11-19T03:30:41;11.70;98.80
3069;DHT22;1545;51.728;8.796;2023-11-19T03:33:07;11.70;98.80
3069;DHT22;1545;51.728;8.796;2023-11-19T03:35:32;11.70;98.80
3069;DHT22;1545;51.728;8.796;2023-11-19T03:37:58;11.70;98.80
3069;DHT22;1545;51.728;8.796;2023-11-19T03:40:24;11.70;98.80
3069;DHT22;1545;51.728;8.796;2023-11-19T03:42:50;11.80;98.80
3069;DHT22;1545;51.728;8.796;2023-11-19T03:45:16;11.90;98.80
3069;DHT22;1545;51.728;8.796;2023-11-19T03:47:41;11.90;98.80
3069;DHT22;1545;51.728;8.796;2023-11-19T03:50:07;11.90;98.80
3069;DHT22;1545;51.728;8.796;2023-11-19T03:52:33;12.00;98.80
3069;DHT22;1545;51.728;8.796;2023-11-19T03:54:59;11.90;98.80
3069;DHT22;1545;51.728;8.796;2023-11-19T03:57:24;12.00;98.80
3069;DHT22;1545;51.728;8.796;2023-11-19T03:59:50;11.90;98.80
3069;DHT22;1545;51.728;8.796;2023-11-19T04:02:17;12.00;98.80
3069;DHT22;1545;51.728;8.796;2023-11-19T04:04:43;12.10;98.80
3069;DHT22;1545;51.728;8.796;2023-11-19T04:07:08;12.10;98.80
3069;DHT22;1545;51.728;8.796;2023-11-19T04:09:34;12.10;98.80
3069;DHT22;1545;51.728;8.796;2023-11-19T04:12:00;12.30;98.80
3069;DHT22;1545;51.728;8.796;2023-11-19T04:14:26;12.20;98.80
3069;DHT22;1545;51.728;8.796;2023-11-19T04:16:52;12.20;98.80
3069;DHT22;1545;51.728;8.796;2023-11-19T04:19:19;12.30;98.80
3069;DHT22;1545;51.728;8.796;2023-11-19T04:21:45;12.30;98.80
3069;DHT22;1545;51.728;8.796;2023-11-19T04:24:10;12.20;98.80
3069;DHT22;1545;51.728;8.796;2023-11-19T04:26:43;12.30;98.80
3069;DHT22;1545;51.728;8.796;2023-11-19T04:29:15;12.30;98.80
3069;DHT22;1545;51.728;8.796;2023-11-19T04:31:42;12.30;98.80
3069;DHT22;1545;51.728;8.796;2023-11-19T04:34:08;12.40;98.80
3069;DHT22;1545;51.728;8.796;2023-11-19T04:36:34;12.30;98.80
3069;DHT22;1545;51.728;8.796;2023-11-19T04:39:00;12.30;98.80
3069;DHT22;1545;51.728;8.796;2023-11-19T04:41:26;12.30;98.80
3069;DHT22;1545;51.728;8.796;2023-11-19T04:43:55;12.30;98.80
3069;DHT22;1545;51.728;8.796;2023-11-19T04:46:21;12.30;98.80
3069;DHT22;1545;51.728;8.796;2023-11-19T04:48:46;12.40;98.80
3069;DHT22;1545;51.728;8.796;2023-11-19T04:51:12;12.40;98.80
3069;DHT22;1545;51.728;8.796;2023-11-19T04:53:37;12.40;98.80
3069;DHT22;1545;51.728;8.796;2023-11-19T04:56:10;12.30;98.80
3069;DHT22;1545;51.728;8.796;2023-11-19T04:58:35;12.30;98.80
3069;DHT22;1545;51.728;8.796;2023-11-19T05:01:05;12.30;98.80
3069;DHT22;1545;51.728;8.796;2023-11-19T05:03:31;12.30;98.80
3069;DHT22;1545;51.728;8.796;2023-11-19T05:05:57;12.40;98.80
3069;DHT22;1545;51.728;8.796;2023-11-19T05:08:23;12.40;98.80
3069;DHT22;1545;51.728;8.796;2023-11-19T05:10:48;12.40;98.80
3069;DHT22;1545;51.728;8.796;2023-11-19T05:13:14;12.40;98.80
3069;DHT22;1545;51.728;8.796;2023-11-19T05:15:40;12.40;98.80
3069;DHT22;1545;51.728;8.796;2023-11-19T05:18:06;12.40;98.80
3069;DHT22;1545;51.728;8.796;2023-11-19T05:20:31;12.40;98.80
3069;DHT22;1545;51.728;8.796;2023-11-19T05:22:57;12.30;98.80
3069;DHT22;1545;51.728;8.796;2023-11-19T05:25:26;12.20;98.80
3069;DHT22;1545;51.728;8.796;2023-11-19T05:27:52;12.10;98.80
3069;DHT22;1545;51.728;8.796;2023-11-19T05:30:17;12.10;98.80
3069;DHT22;1545;51.728;8.796;2023-11-19T05:32:43;12.10;98.80
3069;DHT22;1545;51.728;8.796;2023-11-19T05:35:08;12.10;98.80
3069;DHT22;1545;51.728;8.796;2023-11-19T05:37:34;12.10;98.80
3069;DHT22;1545;51.728;8.796;2023-11-19T05:40:00;12.10;98.80
3069;DHT22;1545;51.728;8.796;2023-11-19T05:42:28;12.00;98.80
3069;DHT22;1545;51.728;8.796;2023-11-19T05:44:53;12.00;98.80
3069;DHT22;1545;51.728;8.796;2023-11-19T05:47:19;11.90;98.80
3069;DHT22;1545;51.728;8.796;2023-11-19T05:49:44;11.90;98.80
3069;DHT22;1545;51.728;8.796;2023-11-19T05:52:10;11.80;98.80
3069;DHT22;1545;51.728;8.796;2023-11-19T05:54:37;11.80;98.80
3069;DHT22;1545;51.728;8.796;2023-11-19T05:57:05;11.80;98.80
3069;DHT22;1545;51.728;8.796;2023-11-19T05:59:30;11.80;98.80
3069;DHT22;1545;51.728;8.796;2023-11-19T06:01:58;11.80;98.80
3069;DHT22;1545;51.728;8.796;2023-11-19T06:04:23;11.80;98.80
3069;DHT22;1545;51.728;8.796;2023-11-19T06:06:49;11.70;98.80
3069;DHT22;1545;51.728;8.796;2023-11-19T06:09:14;11.70;98.80
3069;DHT22;1545;51.728;8.796;2023-11-19T06:11:40;11.70;98.80
3069;DHT22;1545;51.728;8.796;2023-11-19T06:14:06;11.80;98.80
3069;DHT22;1545;51.728;8.796;2023-11-19T06:16:32;11.80;98.80
3069;DHT22;1545;51.728;8.796;2023-11-19T06:18:58;11.90;98.80
3069;DHT22;1545;51.728;8.796;2023-11-19T06:21:23;11.80;98.80
3069;DHT22;1545;51.728;8.796;2023-11-19T06:23:50;11.70;98.80
3069;DHT22;1545;51.728;8.796;2023-11-19T06:26:17;11.70;98.80
3069;DHT22;1545;51.728;8.796;2023-11-19T06:28:43;11.60;98.80
3069;DHT22;1545;51.728;8.796;2023-11-19T06:31:09;11.60;98.80
3069;DHT22;1545;51.728;8.796;2023-11-19T06:33:34;11.50;98.80
3069;DHT22;1545;51.728;8.796;2023-11-19T06:36:00;11.50;98.80
3069;DHT22;1545;51.728;8.796;2023-11-19T06:38:25;11.60;98.80
3069;DHT22;1545;51.728;8.796;2023-11-19T06:40:51;11.60;98.80
3069;DHT22;1545;51.728;8.796;2023-11-19T06:43:16;11.70;98.80
3069;DHT22;1545;51.728;8.796;2023-11-19T06:45:43;11.70;98.80
3069;DHT22;1545;51.728;8.796;2023-11-19T06:48:08;11.70;98.80
3069;DHT22;1545;51.728;8.796;2023-11-19T06:50:34;11.80;98.80
3069;DHT22;1545;51.728;8.796;2023-11-19T06:52:59;11.80;98.80
3069;DHT22;1545;51.728;8.796;2023-11-19T06:55:26;11.70;98.80
3069;DHT22;1545;51.728;8.796;2023-11-19T06:57:52;11.70;98.80
3069;DHT22;1545;51.728;8.796;2023-11-19T07:00:17;11.60;98.80
3069;DHT22;1545;51.728;8.796;2023-11-19T07:02:43;11.60;98.80
3069;DHT22;1545;51.728;8.796;2023-11-19T07:05:09;11.60;98.80
3069;DHT22;1545;51.728;8.796;2023-11-19T07:07:35;11.60;98.80
3069;DHT22;1545;51.728;8.796;2023-11-19T07:10:01;11.60;98.80
3069;DHT22;1545;51.728;8.796;2023-11-19T07:12:28;11.60;98.80
3069;DHT22;1545;51.728;8.796;2023-11-19T07:14:54;11.60;98.80
3069;DHT22;1545;51.728;8.796;2023-11-19T07:17:20;11.70;98.80
3069;DHT22;1545;51.728;8.796;2023-11-19T07:19:46;11.70;98.80
3069;DHT22;1545;51.728;8.796;2023-11-19T07:22:12;11.60;98.80
3069;DHT22;1545;51.728;8.796;2023-11-19T07:24:39;11.70;98.80
3069;DHT22;1545;51.728;8.796;2023-11-19T07:27:05;11.80;98.80
3069;DHT22;1545;51.728;8.796;2023-11-19T07:29:32;11.70;98.80
3069;DHT22;1545;51.728;8.796;2023-11-19T07:31:57;11.80;98.80
3069;DHT22;1545;51.728;8.796;2023-11-19T07:34:23;11.80;98.80
3069;DHT22;1545;51.728;8.796;2023-11-19T07:36:50;11.70;98.80
3069;DHT22;1545;51.728;8.796;2023-11-19T07:39:15;11.70;98.80
3069;DHT22;1545;51.728;8.796;2023-11-19T07:41:41;11.60;98.80
3069;DHT22;1545;51.728;8.796;2023-11-19T07:44:06;11.60;98.80
3069;DHT22;1545;51.728;8.796;2023-11-19T07:46:32;11.50;98.80
3069;DHT22;1545;51.728;8.796;2023-11-19T07:48:58;11.50;98.80
3069;DHT22;1545;51.728;8.796;2023-11-19T07:51:23;11.60;98.80
3069;DHT22;1545;51.728;8.796;2023-11-19T07:53:49;11.60;98.80
3069;DHT22;1545;51.728;8.796;2023-11-19T07:56:14;11.60;98.70
3069;DHT22;1545;51.728;8.796;2023-11-19T07:58:40;11.70;98.80
3069;DHT22;1545;51.728;8.796;2023-11-19T08:01:06;11.70;98.60
3069;DHT22;1545;51.728;8.796;2023-11-19T08:03:32;11.70;98.30
3069;DHT22;1545;51.728;8.796;2023-11-19T08:05:59;11.80;97.90
3069;DHT22;1545;51.728;8.796;2023-11-19T08:08:25;11.90;97.50
3069;DHT22;1545;51.728;8.796;2023-11-19T08:10:50;12.00;96.90
3069;DHT22;1545;51.728;8.796;2023-11-19T08:13:18;12.00;96.30
3069;DHT22;1545;51.728;8.796;2023-11-19T08:15:43;12.00;96.20
3069;DHT22;1545;51.728;8.796;2023-11-19T08:18:09;12.10;96.10
3069;DHT22;1545;51.728;8.796;2023-11-19T08:20:34;12.10;95.10
3069;DHT22;1545;51.728;8.796;2023-11-19T08:23:01;12.10;95.00
3069;DHT22;1545;51.728;8.796;2023-11-19T08:25:28;12.10;95.10
3069;DHT22;1545;51.728;8.796;2023-11-19T08:27:54;12.10;94.70
3069;DHT22;1545;51.728;8.796;2023-11-19T08:30:20;12.10;95.10
3069;DHT22;1545;51.728;8.796;2023-11-19T08:32:45;12.10;95.10
3069;DHT22;1545;51.728;8.796;2023-11-19T08:35:11;12.10;95.10
3069;DHT22;1545;51.728;8.796;2023-11-19T08:37:36;12.20;95.50
3069;DHT22;1545;51.728;8.796;2023-11-19T08:40:04;12.20;95.20
3069;DHT22;1545;51.728;8.796;2023-11-19T08:42:30;12.30;95.00
3069;DHT22;1545;51.728;8.796;2023-11-19T08:44:56;12.30;94.60
3069;DHT22;1545;51.728;8.796;2023-11-19T08:47:22;12.40;94.40
3069;DHT22;1545;51.728;8.796;2023-11-19T08:49:50;12.40;94.30
3069;DHT22;1545;51.728;8.796;2023-11-19T08:52:17;12.40;94.10
3069;DHT22;1545;51.728;8.796;2023-11-19T08:54:43;12.40;94.40
3069;DHT22;1545;51.728;8.796;2023-11-19T08:57:08;12.40;94.00
3069;DHT22;1545;51.728;8.796;2023-11-19T08:59:34;12.30;93.90
3069;DHT22;1545;51.728;8.796;2023-11-19T09:02:00;12.30;93.70
3069;DHT22;1545;51.728;8.796;2023-11-19T09:04:25;12.40;93.90
3069;DHT22;1545;51.728;8.796;2023-11-19T09:06:51;12.30;93.60
3069;DHT22;1545;51.728;8.796;2023-11-19T09:09:16;12.40;93.80
3069;DHT22;1545;51.728;8.796;2023-11-19T09:11:42;12.50;93.00
3069;DHT22;1545;51.728;8.796;2023-11-19T09:14:08;12.60;92.80
3069;DHT22;1545;51.728;8.796;2023-11-19T09:16:33;12.70;92.20
3069;DHT22;1545;51.728;8.796;2023-11-19T09:18:59;12.80;91.80
3069;DHT22;1545;51.728;8.796;2023-11-19T09:21:28;12.80;91.30
3069;DHT22;1545;51.728;8.796;2023-11-19T09:23:57;12.70;91.30
3069;DHT22;1545;51.728;8.796;2023-11-19T09:26:23;12.80;91.30
3069;DHT22;1545;51.728;8.796;2023-11-19T09:28:48;12.80;91.50
3069;DHT22;1545;51.728;8.796;2023-11-19T09:31:17;12.80;91.50
3069;DHT22;1545;51.728;8.796;2023-11-19T09:33:44;12.80;91.10
3069;DHT22;1545;51.728;8.796;2023-11-19T09:36:11;12.80;91.30
3069;DHT22;1545;51.728;8.796;2023-11-19T09:38:39;12.90;90.90
3069;DHT22;1545;51.728;8.796;2023-11-19T09:41:05;12.90;90.70
3069;DHT22;1545;51.728;8.796;2023-11-19T09:43:34;12.90;90.80
3069;DHT22;1545;51.728;8.796;2023-11-19T09:46:04;12.90;91.10
3069;DHT22;1545;51.728;8.796;2023-11-19T09:48:33;12.90;91.00
3069;DHT22;1545;51.728;8.796;2023-11-19T09:50:58;12.80;91.20
3069;DHT22;1545;51.728;8.796;2023-11-19T09:53:24;12.70;91.40
3069;DHT22;1545;51.728;8.796;2023-11-19T09:55:50;12.70;91.50
3069;DHT22;1545;51.728;8.796;2023-11-19T09:58:16;12.60;92.50
3069;DHT22;1545;51.728;8.796;2023-11-19T10:00:42;12.50;93.30
3069;DHT22;1545;51.728;8.796;2023-11-19T10:03:10;12.30;93.30
3069;DHT22;1545;51.728;8.796;2023-11-19T10:05:37;12.30;94.00
3069;DHT22;1545;51.728;8.796;2023-11-19T10:08:04;12.20;94.50
3069;DHT22;1545;51.728;8.796;2023-11-19T10:10:30;12.20;94.60
3069;DHT22;1545;51.728;8.796;2023-11-19T10:12:55;12.10;94.60
3069;DHT22;1545;51.728;8.796;2023-11-19T10:15:22;12.10;94.50
3069;DHT22;1545;51.728;8.796;2023-11-19T10:17:49;12.10;94.80
3069;DHT22;1545;51.728;8.796;2023-11-19T10:20:15;12.20;95.20
3069;DHT22;1545;51.728;8.796;2023-11-19T10:22:40;12.30;94.70
3069;DHT22;1545;51.728;8.796;2023-11-19T10:25:27;12.40;94.60
3069;DHT22;1545;51.728;8.796;2023-11-19T10:27:56;12.50;94.00
3069;DHT22;1545;51.728;8.796;2023-11-19T10:30:27;12.60;93.80
3069;DHT22;1545;51.728;8.796;2023-11-19T10:33:04;12.70;93.00
3069;DHT22;1545;51.728;8.796;2023-11-19T10:35:51;12.70;92.40
3069;DHT22;1545;51.728;8.796;2023-11-19T10:38:20;12.90;91.80
3069;DHT22;1545;51.728;8.796;2023-11-19T10:40:46;13.10;91.20
3069;DHT22;1545;51.728;8.796;2023-11-19T10:43:12;13.40;90.30
3069;DHT22;1545;51.728;8.796;2023-11-19T10:45:38;13.40;89.80
3069;DHT22;1545;51.728;8.796;2023-11-19T10:48:05;13.40;89.70
3069;DHT22;1545;51.728;8.796;2023-11-19T10:50:33;13.50;89.60
3069;DHT22;1545;51.728;8.796;2023-11-19T10:52:59;13.60;88.40
3069;DHT22;1545;51.728;8.796;2023-11-19T10:55:30;13.60;88.70
3069;DHT22;1545;51.728;8.796;2023-11-19T10:58:02;13.60;88.80
3069;DHT22;1545;51.728;8.796;2023-11-19T11:00:29;13.60;88.70
3069;DHT22;1545;51.728;8.796;2023-11-19T11:03:01;13.60;88.60
3069;DHT22;1545;51.728;8.796;2023-11-19T11:05:29;13.50;88.40
3069;DHT22;1545;51.728;8.796;2023-11-19T11:07:58;13.50;88.70
3069;DHT22;1545;51.728;8.796;2023-11-19T11:10:26;13.40;88.90
3069;DHT22;1545;51.728;8.796;2023-11-19T11:12:52;13.30;89.50
3069;DHT22;1545;51.728;8.796;2023-11-19T11:15:27;13.10;89.70
3069;DHT22;1545;51.728;8.796;2023-11-19T11:17:59;13.10;89.90
3069;DHT22;1545;51.728;8.796;2023-11-19T11:20:25;13.00;90.50
3069;DHT22;1545;51.728;8.796;2023-11-19T11:25:54;12.80;91.10
3069;DHT22;1545;51.728;8.796;2023-11-19T11:28:31;12.80;91.50
3069;DHT22;1545;51.728;8.796;2023-11-19T11:31:15;12.70;91.30
3069;DHT22;1545;51.728;8.796;2023-11-19T11:36:31;12.70;91.80
3069;DHT22;1545;51.728;8.796;2023-11-19T11:39:03;12.70;92.30
3069;DHT22;1545;51.728;8.796;2023-11-19T11:41:33;12.60;92.20
3069;DHT22;1545;51.728;8.796;2023-11-19T11:43:59;12.70;92.20
3069;DHT22;1545;51.728;8.796;2023-11-19T11:49:02;12.70;92.00
3069;DHT22;1545;51.728;8.796;2023-11-19T11:57:10;12.60;92.30
3069;DHT22;1545;51.728;8.796;2023-11-19T12:02:08;12.60;92.70
3069;DHT22;1545;51.728;8.796;2023-11-19T12:04:35;12.50;94.00
3069;DHT22;1545;51.728;8.796;2023-11-19T12:07:05;12.40;95.20
3069;DHT22;1545;51.728;8.796;2023-11-19T12:09:31;12.10;96.90
3069;DHT22;1545;51.728;8.796;2023-11-19T12:12:21;11.90;98.80
3069;DHT22;1545;51.728;8.796;2023-11-19T12:20:04;11.30;98.80
3069;DHT22;1545;51.728;8.796;2023-11-19T12:22:31;11.20;98.80
3069;DHT22;1545;51.728;8.796;2023-11-19T12:24:57;11.20;98.80
3069;DHT22;1545;51.728;8.796;2023-11-19T12:27:23;11.20;98.80
3069;DHT22;1545;51.728;8.796;2023-11-19T12:29:49;11.30;98.80
3069;DHT22;1545;51.728;8.796;2023-11-19T12:32:14;11.40;98.80
3069;DHT22;1545;51.728;8.796;2023-11-19T12:34:40;11.40;98.80
3069;DHT22;1545;51.728;8.796;2023-11-19T12:37:06;11.40;98.80
3069;DHT22;1545;51.728;8.796;2023-11-19T12:39:32;11.40;98.80
3069;DHT22;1545;51.728;8.796;2023-11-19T12:41:57;11.50;98.80
3069;DHT22;1545;51.728;8.796;2023-11-19T12:44:25;11.50;98.80
3069;DHT22;1545;51.728;8.796;2023-11-19T12:47:04;11.50;98.80
3069;DHT22;1545;51.728;8.796;2023-11-19T12:49:32;11.60;98.80
3069;DHT22;1545;51.728;8.796;2023-11-19T12:51:58;11.60;98.80
3069;DHT22;1545;51.728;8.796;2023-11-19T12:54:36;11.70;98.80
3069;DHT22;1545;51.728;8.796;2023-11-19T12:57:02;11.90;98.10
3069;DHT22;1545;51.728;8.796;2023-11-19T12:59:28;11.90;97.40
3069;DHT22;1545;51.728;8.796;2023-11-19T13:01:57;11.90;97.60
3069;DHT22;1545;51.728;8.796;2023-11-19T13:04:27;12.00;97.20
3069;DHT22;1545;51.728;8.796;2023-11-19T13:06:52;12.10;96.30
3069;DHT22;1545;51.728;8.796;2023-11-19T13:11:48;12.20;95.90
3069;DHT22;1545;51.728;8.796;2023-11-19T13:14:13;12.20;95.70
3069;DHT22;1545;51.728;8.796;2023-11-19T13:16:39;12.30;95.50
3069;DHT22;1545;51.728;8.796;2023-11-19T13:19:04;12.30;95.70
3069;DHT22;1545;51.728;8.796;2023-11-19T13:21:30;12.40;95.10
3069;DHT22;1545;51.728;8.796;2023-11-19T13:23:56;12.50;95.50
3069;DHT22;1545;51.728;8.796;2023-11-19T13:26:22;12.60;94.60
3069;DHT22;1545;51.728;8.796;2023-11-19T13:28:48;12.70;94.40
3069;DHT22;1545;51.728;8.796;2023-11-19T13:31:14;12.70;93.50
3069;DHT22;1545;51.728;8.796;2023-11-19T13:33:40;12.70;93.20
3069;DHT22;1545;51.728;8.796;2023-11-19T13:36:06;12.60;93.90
3069;DHT22;1545;51.728;8.796;2023-11-19T13:38:36;12.60;94.00
3069;DHT22;1545;51.728;8.796;2023-11-19T13:41:05;12.50;95.00
3069;DHT22;1545;51.728;8.796;2023-11-19T13:43:30;12.50;95.90
3069;DHT22;1545;51.728;8.796;2023-11-19T13:45:56;12.60;94.50
3069;DHT22;1545;51.728;8.796;2023-11-19T13:48:23;12.70;95.00
3069;DHT22;1545;51.728;8.796;2023-11-19T13:50:49;12.60;93.80
3069;DHT22;1545;51.728;8.796;2023-11-19T13:53:15;12.70;94.10
3069;DHT22;1545;51.728;8.796;2023-11-19T13:55:42;12.70;93.30
3069;DHT22;1545;51.728;8.796;2023-11-19T13:58:07;12.70;92.60
3069;DHT22;1545;51.728;8.796;2023-11-19T14:00:33;12.50;92.50
3069;DHT22;1545;51.728;8.796;2023-11-19T14:02:59;12.40;93.10
3069;DHT22;1545;51.728;8.796;2023-11-19T14:05:24;12.30;93.00
3069;DHT22;1545;51.728;8.796;2023-11-19T14:07:50;12.10;92.40
3069;DHT22;1545;51.728;8.796;2023-11-19T14:10:17;12.10;92.30
3069;DHT22;1545;51.728;8.796;2023-11-19T14:12:43;12.00;92.60
3069;DHT22;1545;51.728;8.796;2023-11-19T14:15:09;12.00;92.90
3069;DHT22;1545;51.728;8.796;2023-11-19T14:17:35;12.00;92.90
3069;DHT22;1545;51.728;8.796;2023-11-19T14:20:02;11.90;93.20
3069;DHT22;1545;51.728;8.796;2023-11-19T14:22:40;11.90;93.30
3069;DHT22;1545;51.728;8.796;2023-11-19T14:25:07;11.90;93.20
3069;DHT22;1545;51.728;8.796;2023-11-19T14:27:39;11.90;92.90
3069;DHT22;1545;51.728;8.796;2023-11-19T14:30:06;12.00;92.60
3069;DHT22;1545;51.728;8.796;2023-11-19T14:32:32;12.00;92.60
3069;DHT22;1545;51.728;8.796;2023-11-19T14:34:58;12.00;92.60
3069;DHT22;1545;51.728;8.796;2023-11-19T14:37:23;12.00;92.80
3069;DHT22;1545;51.728;8.796;2023-11-19T14:39:49;12.00;93.30
3069;DHT22;1545;51.728;8.796;2023-11-19T14:42:16;11.90;93.70
3069;DHT22;1545;51.728;8.796;2023-11-19T14:44:42;11.90;93.90
3069;DHT22;1545;51.728;8.796;2023-11-19T14:47:07;11.70;94.80
3069;DHT22;1545;51.728;8.796;2023-11-19T14:49:35;11.60;95.80
3069;DHT22;1545;51.728;8.796;2023-11-19T14:52:00;11.40;96.90
3069;DHT22;1545;51.728;8.796;2023-11-19T14:54:26;11.30;98.20
3069;DHT22;1545;51.728;8.796;2023-11-19T14:56:51;11.30;98.80
3069;DHT22;1545;51.728;8.796;2023-11-19T14:59:17;11.20;98.80
3069;DHT22;1545;51.728;8.796;2023-11-19T15:01:45;11.20;98.80
3069;DHT22;1545;51.728;8.796;2023-11-19T15:04:11;11.20;98.80
3069;DHT22;1545;51.728;8.796;2023-11-19T15:06:37;11.30;98.80
3069;DHT22;1545;51.728;8.796;2023-11-19T15:09:03;11.30;98.80
3069;DHT22;1545;51.728;8.796;2023-11-19T15:11:29;11.40;98.80
3069;DHT22;1545;51.728;8.796;2023-11-19T15:13:55;11.30;98.80
3069;DHT22;1545;51.728;8.796;2023-11-19T15:16:20;11.30;98.80
3069;DHT22;1545;51.728;8.796;2023-11-19T15:18:51;11.10;98.80
3069;DHT22;1545;51.728;8.796;2023-11-19T15:21:17;11.00;98.80
3069;DHT22;1545;51.728;8.796;2023-11-19T15:23:43;11.00;98.80
3069;DHT22;1545;51.728;8.796;2023-11-19T15:26:09;10.90;98.80
3069;DHT22;1545;51.728;8.796;2023-11-19T15:28:36;10.80;98.80
3069;DHT22;1545;51.728;8.796;2023-11-19T15:31:02;10.80;98.80
3069;DHT22;1545;51.728;8.796;2023-11-19T15:33:28;10.80;98.80
3069;DHT22;1545;51.728;8.796;2023-11-19T15:35:53;10.90;98.80
3069;DHT22;1545;51.728;8.796;2023-11-19T15:38:19;11.00;98.80
3069;DHT22;1545;51.728;8.796;2023-11-19T15:40:44;11.10;98.80
3069;DHT22;1545;51.728;8.796;2023-11-19T15:43:10;11.10;98.80
3069;DHT22;1545;51.728;8.796;2023-11-19T15:45:36;11.20;98.60
3069;DHT22;1545;51.728;8.796;2023-11-19T15:48:05;11.40;98.30
3069;DHT22;1545;51.728;8.796;2023-11-19T15:50:31;11.50;97.30
3069;DHT22;1545;51.728;8.796;2023-11-19T15:52:57;11.50;97.50
3069;DHT22;1545;51.728;8.796;2023-11-19T15:55:24;11.60;96.90
3069;DHT22;1545;51.728;8.796;2023-11-19T15:57:50;11.60;96.80
3069;DHT22;1545;51.728;8.796;2023-11-19T16:00:16;11.60;96.70
3069;DHT22;1545;51.728;8.796;2023-11-19T16:02:42;11.70;96.30
3069;DHT22;1545;51.728;8.796;2023-11-19T16:05:08;11.80;96.20
3069;DHT22;1545;51.728;8.796;2023-11-19T16:07:34;11.80;95.30
3069;DHT22;1545;51.728;8.796;2023-11-19T16:10:01;11.80;95.40
3069;DHT22;1545;51.728;8.796;2023-11-19T16:12:29;11.80;96.30
3069;DHT22;1545;51.728;8.796;2023-11-19T16:14:55;11.80;96.10
3069;DHT22;1545;51.728;8.796;2023-11-19T16:17:23;11.70;96.20
3069;DHT22;1545;51.728;8.796;2023-11-19T16:19:49;11.80;95.60
3069;DHT22;1545;51.728;8.796;2023-11-19T16:22:14;11.80;96.10